Bluffton, IN

4:41 PM EST on February 24, 2017 (GMT -0500)
Rigby Timbers | | Change Station
Active Advisory: Severe Thunderstorm Watch

Elev 856 ft 40.71 °N, 85.17 °W | Updated 9 seconds ago

Overcast
Overcast
65.8 °F
Feels Like 65.8 °F
N
5.0
Wind Variable Wind from SW

Today
High -- | Low -- °F
--% Chance of Precip.
Yesterday
High -- | Low -- °F
Precip. -- in
Pressure 29.48 in
Visibility 10.0 miles
Clouds Few 5000 ft
Scattered Clouds 17000 ft
Overcast 22000 ft
Dew Point 58 °F
Humidity 76%
Rainfall 0.02 in
Snow Depth Not available.
7:21 AM 6:26 PM
Waning Crescent, 3% visible
METAR KFWA 242054Z 22010KT 10SM FEW050 SCT170 OVC220 18/12 A2948 RMK AO2 LTG DSNT SE AND S RAB05E17 SLP982 P0000 60000 T01830117 58004
Pressure 29.48 in
Visibility 10.0 miles
Clouds Few 5000 ft
Scattered Clouds 17000 ft
Overcast 22000 ft
Dew Point 58 °F
Humidity 76%
Rainfall 0.02 in
Snow Depth Not available.
7:21 AM 6:26 PM
Waning Crescent, 3% visible
METAR KFWA 242054Z 22010KT 10SM FEW050 SCT170 OVC220 18/12 A2948 RMK AO2 LTG DSNT SE AND S RAB05E17 SLP982 P0000 60000 T01830117 58004

Get Your Daily Forecast Email!

Thanks for signing up!

Be on the lookout for a verification email in your inbox.

You'll start receiving the daily forecast at 8 AM.

×

10-Day Weather Forecast

Almanac

Astronomy

Feb. 24, 2017 Rise Set
Actual Time
Civil Twilight
Nautical Twilight
Astronomical Twilight
Moon
Length of Visible Light
Length of Day
Tomorrow will be .
, % of the Moon is Illuminated

Today's Extremes

State Highs State Lows

Community

WunderPhotos

Upload Photos

1,962,540 photos uploaded!

WunderBlog® & News

Nearby

Air Quality

  Air Quality AQ Index Pollutant
Not available.

Snow Depth

Station Depth Elevation

Earthquake Activity

City Distance Mag. Time & Date
Minimum magnitude displayed is 2.5.

Coastal Water Temperatures

Place Temperature

Stations

Nearby Weather Stations

Station Location Temp. Windchill Dew Point Humidity Wind Precip. Elev Updated Type
                   

Watches & Warnings

Severe Thunderstorm Watch
Issued: 4:24 PM EST Feb. 24, 2017 – National Weather Service

Severe Thunderstorm Watch 37 remains in effect until 1000 PM EST
for the following locations


In
. Indiana counties included are

Adams Allen Bartholomew
Blackford Boone Brown
Carroll Cass Clay
Clinton Daviess Decatur
De Kalb Delaware Elkhart
Fountain Fulton Grant
Greene Hamilton Hancock
Hendricks Henry Howard
Huntington Jackson Jay
Jennings Johnson Knox
Kosciusko LaGrange Lawrence
Madison Marion Marshall
Martin Miami Monroe
Montgomery Morgan Noble
Owen Parke Pulaski
Putnam Randolph rush
Shelby Steuben Sullivan
Tippecanoe Tipton Vigo
Wabash Wells white
Whitley